createdAt,value
2022-08-05T00:02:07.306Z,19.90
2022-08-05T00:04:37.214Z,19.95
2022-08-05T00:07:26.920Z,19.97
2022-08-05T00:09:56.462Z,20.00
2022-08-05T00:12:28.699Z,20.00
2022-08-05T00:14:58.317Z,20.02
2022-08-05T00:17:27.946Z,20.03
2022-08-05T00:20:01.986Z,20.04
2022-08-05T00:22:32.710Z,20.02
2022-08-05T00:25:02.338Z,20.01
2022-08-05T00:27:42.882Z,19.99
2022-08-05T00:30:13.589Z,19.97
2022-08-05T00:32:43.237Z,20.00
2022-08-05T00:35:13.019Z,20.02
2022-08-05T00:37:52.741Z,20.01
2022-08-05T00:40:27.206Z,20.00
2022-08-05T00:43:07.587Z,19.99
2022-08-05T00:45:38.412Z,20.01
2022-08-05T00:48:10.282Z,20.02
2022-08-05T00:50:41.331Z,20.02
2022-08-05T00:54:01.110Z,20.01
2022-08-05T00:56:04.040Z,20.01
2022-08-05T00:58:36.336Z,20.01
2022-08-05T01:01:08.674Z,19.99
2022-08-05T01:03:38.894Z,19.97
2022-08-05T01:06:11.190Z,19.96
2022-08-05T01:08:44.846Z,19.97
2022-08-05T01:11:22.380Z,19.96
2022-08-05T01:14:08.719Z,19.94
2022-08-05T01:16:41.181Z,19.88
2022-08-05T01:19:30.400Z,19.84
2022-08-05T01:22:28.960Z,19.76
2022-08-05T01:25:40.704Z,19.70
2022-08-05T01:28:29.932Z,19.64
2022-08-05T01:31:04.317Z,19.54
2022-08-05T01:33:37.896Z,19.49
2022-08-05T01:36:16.296Z,19.41
2022-08-05T01:38:48.460Z,19.36
2022-08-05T01:41:21.882Z,19.27
2022-08-05T01:43:54.445Z,19.19
2022-08-05T01:46:43.161Z,19.13
2022-08-05T01:49:22.798Z,19.07
2022-08-05T01:51:53.666Z,19.02
2022-08-05T01:54:25.707Z,19.00
2022-08-05T01:58:10.896Z,18.97
2022-08-05T01:59:51.382Z,18.91
2022-08-05T02:02:26.110Z,18.88
2022-08-05T02:05:01.416Z,18.87
2022-08-05T02:07:33.744Z,18.89
2022-08-05T02:10:04.269Z,18.93
2022-08-05T02:12:43.164Z,19.00
2022-08-05T02:15:19.622Z,19.04
2022-08-05T02:18:32.359Z,19.06
2022-08-05T02:20:47.308Z,19.06
2022-08-05T02:23:22.396Z,19.04
2022-08-05T02:25:52.805Z,19.01
2022-08-05T02:28:29.168Z,18.98
2022-08-05T02:31:06.049Z,18.96
2022-08-05T02:33:42.081Z,18.93
2022-08-05T02:36:16.037Z,18.90
2022-08-05T02:38:53.646Z,18.89
2022-08-05T02:41:28.596Z,18.87
2022-08-05T02:44:11.200Z,18.85
2022-08-05T02:46:58.570Z,18.86
2022-08-05T02:49:37.162Z,18.87
2022-08-05T02:52:11.515Z,18.89
2022-08-05T02:54:42.330Z,18.89
2022-08-05T02:58:11.929Z,18.90
2022-08-05T03:00:12.558Z,18.93
2022-08-05T03:02:47.170Z,18.92
2022-08-05T03:05:21.839Z,18.91
2022-08-05T03:08:09.487Z,18.85
2022-08-05T03:10:39.393Z,18.67
2022-08-05T03:13:16.833Z,18.42
2022-08-05T03:15:47.307Z,18.17
2022-08-05T03:18:30.115Z,17.93
2022-08-05T03:21:00.383Z,17.71
2022-08-05T03:23:30.140Z,17.59
2022-08-05T03:26:04.449Z,17.51
2022-08-05T03:28:50.379Z,17.45
2022-08-05T03:31:55.607Z,17.41
2022-08-05T03:34:13.888Z,17.40
2022-08-05T03:36:43.792Z,17.39
2022-08-05T03:39:20.201Z,17.40
2022-08-05T03:41:57.217Z,17.43
2022-08-05T03:44:29.121Z,17.48
2022-08-05T03:46:58.793Z,17.52
2022-08-05T03:49:52.027Z,17.56
2022-08-05T03:52:49.352Z,17.61
2022-08-05T03:56:01.438Z,17.66
2022-08-05T03:58:08.354Z,17.69
2022-08-05T04:00:41.897Z,17.73
2022-08-05T04:03:15.040Z,17.76
2022-08-05T04:06:01.052Z,17.77
2022-08-05T04:08:36.216Z,17.80
2022-08-05T04:11:08.644Z,17.83
2022-08-05T04:13:49.676Z,17.84
2022-08-05T04:16:25.328Z,17.87
2022-08-05T04:19:02.742Z,17.88
2022-08-05T04:22:10.007Z,17.88
2022-08-05T04:24:32.686Z,17.90
2022-08-05T04:27:02.302Z,17.89
2022-08-05T04:29:32.183Z,17.85
2022-08-05T04:32:02.427Z,17.84
2022-08-05T04:34:34.552Z,17.84
2022-08-05T04:37:08.459Z,17.87
2022-08-05T04:39:39.171Z,17.89
2022-08-05T04:42:10.769Z,17.92
2022-08-05T04:44:41.681Z,17.97
2022-08-05T04:47:13.651Z,18.03
2022-08-05T04:50:02.026Z,18.07
2022-08-05T04:52:38.985Z,18.10
2022-08-05T04:55:14.442Z,18.13
2022-08-05T04:57:47.776Z,18.14
2022-08-05T05:00:23.519Z,18.15
2022-08-05T05:02:53.760Z,18.15
2022-08-05T05:05:28.682Z,18.16
2022-08-05T05:08:03.528Z,18.13
2022-08-05T05:10:34.621Z,18.12
2022-08-05T05:13:05.068Z,18.10
2022-08-05T05:15:59.044Z,18.14
2022-08-05T05:18:31.601Z,18.21
2022-08-05T05:21:05.532Z,18.33
2022-08-05T05:24:02.111Z,18.44
2022-08-05T05:26:28.778Z,18.57
2022-08-05T05:29:14.411Z,18.65
2022-08-05T05:31:46.266Z,18.72
2022-08-05T05:34:21.177Z,18.76
2022-08-05T05:36:55.476Z,18.80
2022-08-05T05:39:31.683Z,18.84
2022-08-05T05:42:04.768Z,18.90
2022-08-05T05:44:36.647Z,18.94
2022-08-05T05:47:21.236Z,18.98
2022-08-05T05:49:56.639Z,19.03
2022-08-05T05:52:33.192Z,19.10
2022-08-05T05:55:13.551Z,19.16
2022-08-05T05:57:53.016Z,19.19
2022-08-05T06:00:27.604Z,19.24
2022-08-05T06:03:01.420Z,19.32
2022-08-05T06:05:31.911Z,19.33
2022-08-05T06:08:02.290Z,19.35
2022-08-05T06:10:37.560Z,19.42
2022-08-05T06:13:18.863Z,19.50
2022-08-05T06:16:29.280Z,19.59
2022-08-05T06:18:39.354Z,19.65
2022-08-05T06:21:18.563Z,19.66
2022-08-05T06:23:49.789Z,19.68
2022-08-05T06:26:24.216Z,19.70
2022-08-05T06:28:54.712Z,19.71
2022-08-05T06:31:32.168Z,19.68
2022-08-05T06:34:07.634Z,19.68
2022-08-05T06:36:57.413Z,19.67
2022-08-05T06:39:28.584Z,19.64
2022-08-05T06:42:04.643Z,19.60
2022-08-05T06:44:34.793Z,19.55
2022-08-05T06:47:04.391Z,19.54
2022-08-05T06:50:00.863Z,19.50
2022-08-05T06:52:36.609Z,19.48
2022-08-05T06:55:08.502Z,19.54
2022-08-05T06:58:02.768Z,19.58
2022-08-05T07:00:32.843Z,19.58
2022-08-05T07:03:03.255Z,19.62
2022-08-05T07:05:41.295Z,19.65
2022-08-05T07:08:11.279Z,19.66
2022-08-05T07:10:52.899Z,19.71
2022-08-05T07:13:57.568Z,19.75
2022-08-05T07:17:58.678Z,19.74
2022-08-05T07:20:16.453Z,19.76
2022-08-05T07:22:28.116Z,19.83
2022-08-05T07:25:23.257Z,19.84
2022-08-05T07:27:58.373Z,19.87
2022-08-05T07:30:39.075Z,19.90
2022-08-05T07:33:16.007Z,19.92
2022-08-05T07:36:02.249Z,19.97
2022-08-05T07:38:43.412Z,19.91
2022-08-05T07:42:09.232Z,19.78
2022-08-05T07:44:18.660Z,19.66
2022-08-05T07:46:51.851Z,19.57
2022-08-05T07:49:22.011Z,19.44
2022-08-05T07:51:54.868Z,19.35
2022-08-05T07:54:30.233Z,19.29
2022-08-05T07:57:41.334Z,19.23
2022-08-05T07:59:51.144Z,19.08
2022-08-05T08:02:30.912Z,18.86
2022-08-05T08:05:01.512Z,18.67
2022-08-05T08:07:39.660Z,18.55
2022-08-05T08:10:21.312Z,18.50
2022-08-05T08:12:51.082Z,18.48
2022-08-05T08:16:33.387Z,18.45
2022-08-05T08:18:14.397Z,18.37
2022-08-05T08:21:02.963Z,18.35
2022-08-05T08:24:02.398Z,18.36
2022-08-05T08:26:26.522Z,18.39
2022-08-05T08:29:02.317Z,18.42
2022-08-05T08:31:48.601Z,18.44
2022-08-05T08:34:30.808Z,18.51
2022-08-05T08:37:03.220Z,18.52
2022-08-05T08:39:37.579Z,18.52
2022-08-05T08:42:27.582Z,18.42
2022-08-05T08:45:23.520Z,18.30
2022-08-05T08:48:13.054Z,18.14
2022-08-05T08:51:22.493Z,17.96
2022-08-05T08:53:36.503Z,17.81
2022-08-05T08:56:06.584Z,17.71
2022-08-05T08:58:37.491Z,17.67
2022-08-05T09:01:17.144Z,17.72
2022-08-05T09:03:54.373Z,17.82
2022-08-05T09:06:32.171Z,17.87
2022-08-05T09:09:07.384Z,17.88
2022-08-05T09:11:51.671Z,17.84
2022-08-05T09:14:56.576Z,17.80
2022-08-05T09:17:15.915Z,17.73
2022-08-05T09:20:08.482Z,17.66
2022-08-05T09:23:18.697Z,17.66
2022-08-05T09:26:00.898Z,17.64
2022-08-05T09:28:34.076Z,17.60
2022-08-05T09:31:43.687Z,17.67
2022-08-05T09:33:59.037Z,17.76
2022-08-05T09:36:45.952Z,17.83
2022-08-05T09:39:41.961Z,17.84
2022-08-05T09:42:23.391Z,17.74
2022-08-05T09:45:17.895Z,17.71
2022-08-05T09:47:56.237Z,17.75
2022-08-05T09:50:44.599Z,17.95
2022-08-05T09:53:25.727Z,18.10
2022-08-05T09:56:03.917Z,18.22
2022-08-05T09:58:35.419Z,18.30
2022-08-05T10:01:13.744Z,18.32
2022-08-05T10:04:00.312Z,18.24
2022-08-05T10:06:30.918Z,18.21
2022-08-05T10:09:27.286Z,18.23
2022-08-05T10:12:18.891Z,18.27
2022-08-05T10:15:20.634Z,18.32
2022-08-05T10:18:09.124Z,18.26
2022-08-05T10:20:41.739Z,18.30
2022-08-05T10:23:34.169Z,18.37
2022-08-05T10:26:04.937Z,18.41
2022-08-05T10:28:39.624Z,18.59
2022-08-05T10:32:50.668Z,18.86
2022-08-05T10:34:01.511Z,19.19
2022-08-05T10:36:32.272Z,19.51
2022-08-05T10:39:10.400Z,19.93
2022-08-05T10:41:50.421Z,20.53
2022-08-05T10:44:23.639Z,21.10
2022-08-05T10:46:56.459Z,21.51
2022-08-05T10:49:33.400Z,21.86
2022-08-05T10:52:46.960Z,21.96
2022-08-05T10:55:19.310Z,21.91
2022-08-05T10:57:51.376Z,22.01
2022-08-05T11:00:26.393Z,22.18
2022-08-05T11:03:25.285Z,22.42
2022-08-05T11:06:16.210Z,22.69
2022-08-05T11:09:16.797Z,22.88
2022-08-05T11:11:53.378Z,22.77
2022-08-05T11:14:57.638Z,22.59
2022-08-05T11:18:00.520Z,22.70
2022-08-05T11:20:39.148Z,22.90
2022-08-05T11:23:33.321Z,23.06
2022-08-05T11:26:32.134Z,23.20
2022-08-05T11:29:06.906Z,23.24
2022-08-05T11:31:54.345Z,23.20
2022-08-05T11:34:51.393Z,23.11
2022-08-05T11:38:28.730Z,23.11
2022-08-05T11:41:03.504Z,23.21
2022-08-05T11:44:04.462Z,23.12
2022-08-05T11:46:36.414Z,23.15
2022-08-05T11:49:10.040Z,23.22
2022-08-05T11:51:49.137Z,23.13
2022-08-05T11:54:33.633Z,23.11
2022-08-05T11:57:07.971Z,23.15
2022-08-05T11:59:50.205Z,23.02
2022-08-05T12:02:29.726Z,22.72
2022-08-05T12:05:07.637Z,22.35
2022-08-05T12:08:09.628Z,22.16
2022-08-05T12:10:45.000Z,22.01
2022-08-05T12:13:28.042Z,21.83
2022-08-05T12:16:14.775Z,21.65
2022-08-05T12:18:49.305Z,21.63
2022-08-05T12:21:24.755Z,21.72
2022-08-05T12:24:06.782Z,21.83
2022-08-05T12:26:38.697Z,22.09
2022-08-05T12:29:15.898Z,22.46
2022-08-05T12:31:53.189Z,22.85
2022-08-05T12:34:28.277Z,22.87
2022-08-05T12:36:59.734Z,22.73
2022-08-05T12:39:37.083Z,22.62
2022-08-05T12:42:14.621Z,22.55
2022-08-05T12:44:45.055Z,22.57
2022-08-05T12:47:17.230Z,22.73
2022-08-05T12:50:03.725Z,23.07
2022-08-05T12:52:39.154Z,23.43
2022-08-05T12:55:26.154Z,23.73
2022-08-05T12:58:50.216Z,23.91
2022-08-05T13:02:02.290Z,23.81
2022-08-05T13:03:42.145Z,23.72
2022-08-05T13:06:16.481Z,23.75
2022-08-05T13:08:52.027Z,23.86
2022-08-05T13:11:25.316Z,23.87
2022-08-05T13:14:24.550Z,23.82
2022-08-05T13:17:08.977Z,23.76
2022-08-05T13:19:51.125Z,23.58
2022-08-05T13:22:27.943Z,23.40
2022-08-05T13:25:05.170Z,23.28
2022-08-05T13:27:39.927Z,23.27
2022-08-05T13:30:34.757Z,23.30
2022-08-05T13:33:02.233Z,23.38
2022-08-05T13:35:47.176Z,23.50
2022-08-05T13:38:30.552Z,23.64
2022-08-05T13:41:01.238Z,23.65
2022-08-05T13:43:43.387Z,23.46
2022-08-05T13:46:14.175Z,23.29
2022-08-05T13:48:57.741Z,23.11
2022-08-05T13:51:36.557Z,22.95
2022-08-05T13:54:12.247Z,22.76
2022-08-05T13:56:45.163Z,22.60
2022-08-05T13:59:27.433Z,22.54
2022-08-05T14:02:01.470Z,22.57
2022-08-05T14:04:49.637Z,22.69
2022-08-05T14:07:25.873Z,22.81
2022-08-05T14:10:12.896Z,22.85
2022-08-05T14:12:48.626Z,22.86
2022-08-05T14:16:08.157Z,22.87
2022-08-05T14:18:15.025Z,22.90
2022-08-05T14:20:48.828Z,22.90
2022-08-05T14:23:24.537Z,22.88
2022-08-05T14:25:59.116Z,22.95
2022-08-05T14:28:29.703Z,23.06
2022-08-05T14:31:02.883Z,23.27
2022-08-05T14:33:59.593Z,23.49
2022-08-05T14:36:23.533Z,23.63
2022-08-05T14:38:54.177Z,23.66
2022-08-05T14:41:23.964Z,23.74
2022-08-05T14:44:02.168Z,23.90
2022-08-05T14:46:41.704Z,24.06
2022-08-05T14:49:12.018Z,24.14
2022-08-05T14:51:43.236Z,24.17
2022-08-05T14:54:28.141Z,24.17
2022-08-05T14:57:00.305Z,24.14
2022-08-05T14:59:35.616Z,24.09
2022-08-05T15:02:14.992Z,24.03
2022-08-05T15:04:47.776Z,24.02
2022-08-05T15:08:08.704Z,24.08
2022-08-05T15:10:09.932Z,24.17
2022-08-05T15:13:00.343Z,24.24
2022-08-05T15:15:54.334Z,24.27
2022-08-05T15:18:22.028Z,24.30
2022-08-05T15:20:51.639Z,24.19
2022-08-05T15:23:21.485Z,23.97
2022-08-05T15:25:55.872Z,23.69
2022-08-05T15:28:28.171Z,23.47
2022-08-05T15:30:59.363Z,23.36
2022-08-05T15:34:04.848Z,23.34
2022-08-05T15:36:25.715Z,23.39
2022-08-05T15:40:42.699Z,23.42
2022-08-05T15:41:57.311Z,23.44
2022-08-05T15:44:28.331Z,23.42
2022-08-05T15:47:00.442Z,23.37
2022-08-05T15:49:48.105Z,23.36
2022-08-05T15:52:51.691Z,23.31
2022-08-05T15:55:15.605Z,23.26
2022-08-05T15:57:49.079Z,23.20
2022-08-05T16:00:26.518Z,23.05
2022-08-05T16:03:02.557Z,22.95
2022-08-05T16:05:35.267Z,22.88
2022-08-05T16:08:08.922Z,22.90
2022-08-05T16:10:39.042Z,22.97
2022-08-05T16:13:11.072Z,23.02
2022-08-05T16:15:40.795Z,22.99
2022-08-05T16:18:12.344Z,22.97
2022-08-05T16:20:46.767Z,22.88
2022-08-05T16:23:16.374Z,22.71
2022-08-05T16:25:46.167Z,22.50
2022-08-05T16:28:18.084Z,22.31
2022-08-05T16:30:47.686Z,22.21
2022-08-05T16:33:20.007Z,22.15
2022-08-05T16:35:53.054Z,22.09
2022-08-05T16:38:27.996Z,22.04
2022-08-05T16:41:00.122Z,22.00
2022-08-05T16:43:33.109Z,21.96
2022-08-05T16:46:23.961Z,21.93
2022-08-05T16:48:55.680Z,21.90
2022-08-05T16:51:31.061Z,21.90
2022-08-05T16:54:16.246Z,21.93
2022-08-05T16:56:47.122Z,21.89
2022-08-05T16:59:22.312Z,21.83
2022-08-05T17:01:54.759Z,21.76
2022-08-05T17:04:28.219Z,21.72
2022-08-05T17:07:03.596Z,21.66
2022-08-05T17:09:59.429Z,21.60
2022-08-05T17:12:51.486Z,21.52
2022-08-05T17:15:19.585Z,21.49
2022-08-05T17:18:02.234Z,21.45
2022-08-05T17:20:32.047Z,21.36
2022-08-05T17:23:04.197Z,21.22
2022-08-05T17:25:40.387Z,21.06
2022-08-05T17:28:11.034Z,20.90
2022-08-05T17:30:52.162Z,20.79
2022-08-05T17:33:23.217Z,20.72
2022-08-05T17:36:09.076Z,20.69
2022-08-05T17:38:42.435Z,20.67
2022-08-05T17:42:17.351Z,20.68
2022-08-05T17:44:02.164Z,20.67
2022-08-05T17:46:32.936Z,20.66
2022-08-05T17:49:02.493Z,20.61
2022-08-05T17:51:40.307Z,20.55
2022-08-05T17:54:12.959Z,20.49
2022-08-05T17:56:44.725Z,20.41
2022-08-05T17:59:22.581Z,20.35
2022-08-05T18:01:52.351Z,20.29
2022-08-05T18:04:27.836Z,20.20
2022-08-05T18:07:00.546Z,20.12
2022-08-05T18:09:59.848Z,20.06
2022-08-05T18:12:24.496Z,20.02
2022-08-05T18:14:54.758Z,19.98
2022-08-05T18:17:59.270Z,19.92
2022-08-05T18:20:15.441Z,19.81
2022-08-05T18:22:53.831Z,19.72
2022-08-05T18:25:33.163Z,19.62
2022-08-05T18:28:05.018Z,19.52
2022-08-05T18:30:35.709Z,19.41
2022-08-05T18:33:13.522Z,19.33
2022-08-05T18:36:00.583Z,19.22
2022-08-05T18:38:33.385Z,19.13
2022-08-05T18:41:59.548Z,19.06
2022-08-05T18:43:57.023Z,18.97
2022-08-05T18:46:35.410Z,18.86
2022-08-05T18:49:30.385Z,18.76
2022-08-05T18:52:12.862Z,18.67
2022-08-05T18:54:45.989Z,18.57
2022-08-05T18:57:19.740Z,18.49
2022-08-05T19:00:01.654Z,18.40
2022-08-05T19:02:33.000Z,18.32
2022-08-05T19:06:06.159Z,18.21
2022-08-05T19:07:53.037Z,18.09
2022-08-05T19:10:27.868Z,17.99
2022-08-05T19:13:00.784Z,17.89
2022-08-05T19:16:00.144Z,17.79
2022-08-05T19:18:22.670Z,17.65
2022-08-05T19:20:53.890Z,17.57
2022-08-05T19:24:07.299Z,17.48
2022-08-05T19:26:13.911Z,17.36
2022-08-05T19:28:46.879Z,17.26
2022-08-05T19:31:21.553Z,17.17
2022-08-05T19:33:55.987Z,17.10
2022-08-05T19:36:26.773Z,17.02
2022-08-05T19:39:01.037Z,16.94
2022-08-05T19:42:05.783Z,16.84
2022-08-05T19:44:23.303Z,16.71
2022-08-05T19:46:58.894Z,16.63
2022-08-05T19:49:28.683Z,16.56
2022-08-05T19:52:09.326Z,16.50
2022-08-05T19:54:50.553Z,16.40
2022-08-05T19:57:48.984Z,16.34
2022-08-05T20:00:14.682Z,16.24
2022-08-05T20:02:44.238Z,16.14
2022-08-05T20:05:16.756Z,16.04
2022-08-05T20:07:58.899Z,15.94
2022-08-05T20:10:29.048Z,15.87
2022-08-05T20:12:58.625Z,15.78
2022-08-05T20:15:52.253Z,15.69
2022-08-05T20:18:32.852Z,15.59
2022-08-05T20:21:04.432Z,15.51
2022-08-05T20:23:39.653Z,15.43
2022-08-05T20:26:23.441Z,15.35
2022-08-05T20:28:57.006Z,15.29
2022-08-05T20:31:42.894Z,15.24
2022-08-05T20:34:20.175Z,15.21
2022-08-05T20:36:50.014Z,15.19
2022-08-05T20:39:19.704Z,15.17
2022-08-05T20:41:49.453Z,15.16
2022-08-05T20:44:30.621Z,15.13
2022-08-05T20:47:05.173Z,15.12
2022-08-05T20:49:39.661Z,15.12
2022-08-05T20:52:10.787Z,15.13
2022-08-05T20:54:43.398Z,15.14
2022-08-05T20:57:43.281Z,15.16
2022-08-05T21:00:40.325Z,15.19
2022-08-05T21:03:09.150Z,15.18
2022-08-05T21:05:53.465Z,15.19
2022-08-05T21:08:28.053Z,15.19
2022-08-05T21:11:09.315Z,15.17
2022-08-05T21:13:55.852Z,15.14
2022-08-05T21:16:30.026Z,15.11
2022-08-05T21:19:03.562Z,15.05
2022-08-05T21:21:43.702Z,14.99
2022-08-05T21:24:15.709Z,14.95
2022-08-05T21:26:58.497Z,14.88
2022-08-05T21:29:31.568Z,14.83
2022-08-05T21:32:02.845Z,14.76
2022-08-05T21:34:35.605Z,14.71
2022-08-05T21:37:05.402Z,14.64
2022-08-05T21:39:35.022Z,14.56
2022-08-05T21:42:30.757Z,14.51
2022-08-05T21:45:00.369Z,14.47
2022-08-05T21:47:55.604Z,14.44
2022-08-05T21:50:22.352Z,14.41
2022-08-05T21:52:51.979Z,14.39
2022-08-05T21:55:43.040Z,14.39
2022-08-05T21:58:17.137Z,14.38
2022-08-05T22:00:51.035Z,14.35
2022-08-05T22:03:52.273Z,14.29
2022-08-05T22:06:16.576Z,14.24
2022-08-05T22:08:52.920Z,14.20
2022-08-05T22:11:35.266Z,14.16
2022-08-05T22:14:34.695Z,14.11
2022-08-05T22:16:56.907Z,14.02
2022-08-05T22:20:00.615Z,13.97
2022-08-05T22:22:27.912Z,13.91
2022-08-05T22:25:18.067Z,13.86
2022-08-05T22:28:10.577Z,13.83
2022-08-05T22:30:44.250Z,13.80
2022-08-05T22:33:55.348Z,13.75
2022-08-05T22:36:16.348Z,13.71
2022-08-05T22:38:49.435Z,13.73
2022-08-05T22:42:04.316Z,13.70
2022-08-05T22:44:11.823Z,13.64
2022-08-05T22:46:41.942Z,13.61
2022-08-05T22:50:17.317Z,13.59
2022-08-05T22:52:15.531Z,13.56
2022-08-05T22:54:57.836Z,13.53
2022-08-05T22:57:27.413Z,13.49
2022-08-05T23:00:07.994Z,13.47
2022-08-05T23:02:46.621Z,13.42
2022-08-05T23:05:26.351Z,13.41
2022-08-05T23:07:56.571Z,13.40
2022-08-05T23:10:31.861Z,13.37
2022-08-05T23:13:01.841Z,13.35
2022-08-05T23:15:35.273Z,13.32
2022-08-05T23:18:11.735Z,13.30
2022-08-05T23:20:45.659Z,13.28
2022-08-05T23:23:15.280Z,13.25
2022-08-05T23:25:51.408Z,13.19
2022-08-05T23:28:28.994Z,13.13
2022-08-05T23:31:15.808Z,13.08
2022-08-05T23:34:06.208Z,13.02
2022-08-05T23:36:38.722Z,12.96
2022-08-05T23:39:17.544Z,12.92
2022-08-05T23:41:56.481Z,12.85
2022-08-05T23:44:31.054Z,12.76
2022-08-05T23:47:02.469Z,12.65
2022-08-05T23:49:45.626Z,12.58
2022-08-05T23:52:36.205Z,12.48
2022-08-05T23:55:19.829Z,12.38
2022-08-05T23:57:53.895Z,12.28
